Degognia, Illinois
Current Conditions -  °F | °C
As of 9:52 PM on Wednesday 17 Dec 2014 (Local Time) from KMDH Reporting Station
Overcast Overcast  
Wind Chill: 30°   Ceiling: 10000
Heat Index: 34°   Visibility: 10mi
Dew Point: 27°   Wind: 5mph
Humidity: 75%   Direction: 40°NE
Pressure: 30.29"   Gusts: NA
Location:  37.7458°N, 89.5469°W
Report Text: KMDH 180352Z AUTO 04004KT 10SM OVC100 01/M03 A3029 RMK AO2 SLP260 T00111028
Loading
Personal Weather Stations






























Interactive Weather Map New forecast layout! Learn more

10-Day Weather Forecast

Advertisements
Track Severe Weather on mobile